Archival Weather

NSFA McMurdo Sound

NSFA McMurdo Sound, Antarctica (NZCM)

Report from: Saturday, April 1, 2023 3:55 PM UTC
Current time: Monday, July 22, 2024 10:57 AM UTC

Current weather – Weather history – Daily summaries
Weather forecast

Temperature-20.7°C (-5.3°F)
Wind chill-28.5°C (-19.3°F)
Dew point-25.1°C (-13.2°F)
Winds 6 kts (3.1 m/s, 6.9 mph) Northeast (50°)
Visibility6.2 mi. (10 km)
Clouds Sky clear
Altimeter29.83 in.Hg (1010 mB)
Relative humidity68 %
Density altitude-4,479 ft. (-1,365 m)
Sea-level pressure101.1 kPa (1011 mB, 29.85 in.Hg)
Remarks Fully automated report
Automated weather observing station with precipitation discriminator
Flight conditions Visual Meteorological Conditions
Raw dataNZCM 011555Z AUTO 05006KT 9999 CLR M21/M25 A2983 RMK AO2 SLP109 T12071251
An error has occurred. This application may no longer respond until reloaded. Reload 🗙